Terminal Aerodrome Forecast
Issued by NWS

Home | Current Version | Previous Version | Text Only | Print | Product List | Glossary Off
Versions: 1 2 3 4 5 6 7 8 9 10 11 12 13 14 15 16 17 18 19 20 21 22 23 24 25

000
FTUS42 KMHX 140300 AAA
TAFPGV
TAF AMD
KPGV 140318Z 1403/1424 02004KT P6SM VCSH BKN010 OVC035
     FM140600 02006KT 5SM BR OVC009
     FM141300 04008KT P6SM OVC020
      AMD LTD TO CLD VIS AND WIND=

USA.gov is the U.S. government's official web portal to all federal, state and local government web resources and services.